createdAt,value
2019-04-21T00:00:10.310Z,6.39
2019-04-21T00:02:38.089Z,6.39
2019-04-21T00:05:25.950Z,6.47
2019-04-21T00:08:01.238Z,6.47
2019-04-21T00:10:27.214Z,6.47
2019-04-21T00:12:53.470Z,6.53
2019-04-21T00:15:18.022Z,6.49
2019-04-21T00:17:37.258Z,6.47
2019-04-21T00:20:17.639Z,6.38
2019-04-21T00:22:47.957Z,6.24
2019-04-21T00:25:28.732Z,6.17
2019-04-21T00:28:04.915Z,6.17
2019-04-21T00:30:39.860Z,6.13
2019-04-21T00:33:00.185Z,6.19
2019-04-21T00:35:25.868Z,6.21
2019-04-21T00:38:13.663Z,6.26
2019-04-21T00:40:48.014Z,6.16
2019-04-21T00:43:08.974Z,6.17
2019-04-21T00:45:39.232Z,6.13
2019-04-21T00:48:17.582Z,6.10
2019-04-21T00:51:03.419Z,6.02
2019-04-21T00:53:31.057Z,5.87
2019-04-21T00:55:59.040Z,5.83
2019-04-21T00:58:30.081Z,5.73
2019-04-21T01:01:00.446Z,5.72
2019-04-21T01:03:47.394Z,5.74
2019-04-21T01:05:56.915Z,5.77
2019-04-21T01:08:25.270Z,5.84
2019-04-21T01:10:53.179Z,5.76
2019-04-21T01:13:36.255Z,5.65
2019-04-21T01:16:00.395Z,5.54
2019-04-21T01:18:32.885Z,5.58
2019-04-21T01:20:43.922Z,5.57
2019-04-21T01:23:14.684Z,5.56
2019-04-21T01:25:55.438Z,5.47
2019-04-21T01:28:29.243Z,5.44
2019-04-21T01:31:03.463Z,5.47
2019-04-21T01:33:41.245Z,5.39
2019-04-21T01:36:04.174Z,5.29
2019-04-21T01:38:39.790Z,5.18
2019-04-21T01:41:13.225Z,5.03
2019-04-21T01:43:39.482Z,4.95
2019-04-21T01:46:09.307Z,4.85
2019-04-21T01:48:34.199Z,4.82
2019-04-21T01:51:10.036Z,4.78
2019-04-21T01:54:03.478Z,4.79
2019-04-21T01:56:40.147Z,4.93
2019-04-21T01:59:02.543Z,5.00
2019-04-21T02:01:42.429Z,4.91
2019-04-21T02:04:22.716Z,4.84
2019-04-21T02:06:48.898Z,4.82
2019-04-21T02:09:09.783Z,4.88
2019-04-21T02:11:50.926Z,4.94
2019-04-21T02:14:23.748Z,4.98
2019-04-21T02:16:49.655Z,4.94
2019-04-21T02:19:16.593Z,4.84
2019-04-21T02:21:43.553Z,4.80
2019-04-21T02:24:31.151Z,4.76
2019-04-21T02:26:57.277Z,4.77
2019-04-21T02:29:30.379Z,4.75
2019-04-21T02:32:11.014Z,4.75
2019-04-21T02:34:43.010Z,4.76
2019-04-21T02:37:30.840Z,4.77
2019-04-21T02:39:46.709Z,4.72
2019-04-21T02:44:46.769Z,4.62
2019-04-21T02:47:16.903Z,4.58
2019-04-21T02:52:20.057Z,4.42
2019-04-21T02:57:18.441Z,4.22
2019-04-21T03:08:22.822Z,3.99
2019-04-21T03:13:14.018Z,3.92
2019-04-21T03:18:18.766Z,3.85
2019-04-21T03:20:44.278Z,3.84
2019-04-21T03:23:23.821Z,3.87
2019-04-21T03:25:59.050Z,3.89
2019-04-21T03:28:22.210Z,3.92
2019-04-21T03:38:29.299Z,3.92
2019-04-21T03:40:47.379Z,3.88
2019-04-21T03:45:51.474Z,3.82
2019-04-21T03:48:31.910Z,3.79
2019-04-21T03:50:56.331Z,3.74
2019-04-21T03:53:24.907Z,3.68
2019-04-21T03:58:35.136Z,3.63
2019-04-21T04:01:19.755Z,3.64
2019-04-21T04:06:33.998Z,3.59
2019-04-21T04:09:21.446Z,3.54
2019-04-21T04:11:55.168Z,3.47
2019-04-21T04:17:02.473Z,3.41
2019-04-21T04:19:27.053Z,3.44
2019-04-21T04:24:22.190Z,3.34
2019-04-21T04:27:02.546Z,3.39
2019-04-21T04:29:22.445Z,3.42
2019-04-21T04:34:47.766Z,3.56
2019-04-21T04:37:23.599Z,3.65
2019-04-21T04:40:02.871Z,3.91
2019-04-21T04:42:41.636Z,4.65
2019-04-21T04:47:33.413Z,6.36
2019-04-21T04:49:59.363Z,6.85
2019-04-21T04:52:38.472Z,7.36
2019-04-21T04:55:07.658Z,8.05
2019-04-21T04:57:49.229Z,8.39
2019-04-21T05:12:43.783Z,8.70
2019-04-21T05:15:19.268Z,8.61
2019-04-21T05:22:45.936Z,7.66
2019-04-21T05:25:08.546Z,7.51
2019-04-21T05:27:38.560Z,7.48
2019-04-21T05:30:27.079Z,7.66
2019-04-21T05:33:06.960Z,7.79
2019-04-21T05:35:49.266Z,7.81
2019-04-21T05:38:21.768Z,7.91
2019-04-21T05:40:52.336Z,8.03
2019-04-21T05:43:32.478Z,8.17
2019-04-21T05:46:19.673Z,8.27
2019-04-21T05:51:03.559Z,8.35
2019-04-21T05:53:35.912Z,8.45
2019-04-21T05:56:09.964Z,8.49
2019-04-21T05:58:39.171Z,8.58
2019-04-21T06:06:20.494Z,8.70
2019-04-21T06:08:43.176Z,8.81
2019-04-21T06:11:19.173Z,8.92
2019-04-21T06:13:58.039Z,9.01
2019-04-21T06:16:24.172Z,9.21
2019-04-21T06:18:53.250Z,9.32
2019-04-21T06:21:23.348Z,9.35
2019-04-21T06:23:59.233Z,9.49
2019-04-21T06:28:59.291Z,9.67
2019-04-21T06:34:06.815Z,9.71
2019-04-21T06:37:19.218Z,9.66
2019-04-21T06:39:40.431Z,9.71
2019-04-21T06:42:05.276Z,10.04
2019-04-21T06:44:40.560Z,10.32
2019-04-21T06:47:17.590Z,10.57
2019-04-21T06:49:41.109Z,10.76
2019-04-21T06:52:22.184Z,11.00
2019-04-21T06:54:41.055Z,11.13
2019-04-21T06:57:11.759Z,11.38
2019-04-21T06:59:38.983Z,11.34
2019-04-21T07:04:46.918Z,11.76
2019-04-21T07:07:14.411Z,11.76
2019-04-21T07:09:45.391Z,11.84
2019-04-21T07:12:13.692Z,12.08
2019-04-21T07:14:44.119Z,12.06
2019-04-21T07:17:22.880Z,12.14
2019-04-21T07:19:48.067Z,12.18
2019-04-21T07:22:24.689Z,12.46
2019-04-21T07:24:48.201Z,12.83
2019-04-21T07:27:26.978Z,12.76
2019-04-21T07:29:56.615Z,12.35
2019-04-21T07:32:20.809Z,12.92
2019-04-21T07:34:54.587Z,12.76
2019-04-21T07:37:23.904Z,13.00
2019-04-21T07:39:54.814Z,12.76
2019-04-21T07:42:25.403Z,13.16
2019-04-21T07:44:55.320Z,13.65
2019-04-21T07:47:34.433Z,13.58
2019-04-21T07:50:14.876Z,13.64
2019-04-21T07:53:05.054Z,13.74
2019-04-21T07:57:55.935Z,13.78
2019-04-21T08:03:05.211Z,14.22
2019-04-21T08:05:35.248Z,14.50
2019-04-21T08:08:21.114Z,14.69
2019-04-21T08:11:32.660Z,14.62
2019-04-21T08:15:14.588Z,14.26
2019-04-21T08:18:11.760Z,14.32
2019-04-21T08:21:28.040Z,14.40
2019-04-21T08:24:35.270Z,14.75
2019-04-21T08:28:01.444Z,14.99
2019-04-21T08:31:13.986Z,15.31
2019-04-21T08:33:51.406Z,15.78
2019-04-21T08:38:51.505Z,15.71
2019-04-21T08:41:12.491Z,15.86
2019-04-21T08:43:48.111Z,15.77
2019-04-21T08:46:20.240Z,16.01
2019-04-21T08:48:52.581Z,16.14
2019-04-21T08:56:43.188Z,16.98
2019-04-21T08:59:17.863Z,17.35
2019-04-21T09:01:55.547Z,17.47
2019-04-21T09:04:24.445Z,17.22
2019-04-21T09:09:31.973Z,17.93
2019-04-21T09:12:01.638Z,18.07
2019-04-21T09:14:33.785Z,18.02
2019-04-21T09:16:56.398Z,18.37
2019-04-21T09:19:44.398Z,18.27
2019-04-21T09:22:03.991Z,18.31
2019-04-21T09:24:33.632Z,18.49
2019-04-21T09:27:07.138Z,18.57
2019-04-21T09:29:25.671Z,18.95
2019-04-21T09:31:48.020Z,19.05
2019-04-21T09:34:24.859Z,19.11
2019-04-21T09:36:53.137Z,19.39
2019-04-21T09:39:24.103Z,19.68
2019-04-21T09:41:54.490Z,19.86
2019-04-21T09:44:27.558Z,20.11
2019-04-21T09:46:54.878Z,20.12
2019-04-21T09:49:25.950Z,20.24
2019-04-21T09:51:52.998Z,20.51
2019-04-21T09:54:27.789Z,20.17
2019-04-21T09:56:58.616Z,20.40
2019-04-21T09:59:28.026Z,20.49
2019-04-21T10:02:06.673Z,20.68
2019-04-21T10:04:26.673Z,21.07
2019-04-21T10:06:56.277Z,21.21
2019-04-21T10:09:26.442Z,21.60
2019-04-21T10:11:55.049Z,21.72
2019-04-21T10:14:26.423Z,21.89
2019-04-21T10:17:15.087Z,21.93
2019-04-21T10:19:46.374Z,21.90
2019-04-21T10:22:16.904Z,21.74
2019-04-21T10:24:46.709Z,21.68
2019-04-21T10:27:19.032Z,21.75
2019-04-21T10:29:47.262Z,21.67
2019-04-21T10:32:19.712Z,21.69
2019-04-21T10:34:49.609Z,21.65
2019-04-21T10:37:18.877Z,21.67
2019-04-21T10:39:47.668Z,21.68
2019-04-21T10:42:17.366Z,21.56
2019-04-21T10:44:47.187Z,21.52
2019-04-21T10:47:16.574Z,21.52
2019-04-21T10:49:46.514Z,21.61
2019-04-21T10:52:28.920Z,21.74
2019-04-21T10:55:20.799Z,21.64
2019-04-21T10:57:32.574Z,21.56
2019-04-21T11:00:08.366Z,21.67
2019-04-21T11:02:44.223Z,21.91
2019-04-21T11:05:12.828Z,22.08
2019-04-21T11:08:00.913Z,21.82
2019-04-21T11:10:20.345Z,21.97
2019-04-21T11:12:50.668Z,21.86
2019-04-21T11:15:23.225Z,21.92
2019-04-21T11:17:52.323Z,22.09
2019-04-21T11:20:22.874Z,22.10
2019-04-21T11:22:51.844Z,22.05
2019-04-21T11:25:20.420Z,22.16
2019-04-21T11:27:49.343Z,22.27
2019-04-21T11:30:21.081Z,22.49
2019-04-21T11:32:51.143Z,22.55
2019-04-21T11:35:23.289Z,22.83
2019-04-21T11:38:07.237Z,23.14
2019-04-21T11:40:29.716Z,23.10
2019-04-21T11:42:59.723Z,23.21
2019-04-21T11:45:32.730Z,23.27
2019-04-21T11:48:10.499Z,23.24
2019-04-21T11:50:39.439Z,23.48
2019-04-21T11:53:08.321Z,23.58
2019-04-21T11:55:41.163Z,23.55
2019-04-21T11:58:09.844Z,23.47
2019-04-21T12:00:39.825Z,23.58
2019-04-21T12:03:09.229Z,23.26
2019-04-21T12:05:39.866Z,23.32
2019-04-21T12:08:21.013Z,23.16
2019-04-21T12:10:39.714Z,23.04
2019-04-21T12:13:08.454Z,23.11
2019-04-21T12:15:38.943Z,23.33
2019-04-21T12:18:08.188Z,23.56
2019-04-21T12:20:37.631Z,23.35
2019-04-21T12:23:06.831Z,23.24
2019-04-21T12:25:39.060Z,23.51
2019-04-21T12:28:08.009Z,23.61
2019-04-21T12:30:37.791Z,23.51
2019-04-21T12:33:25.489Z,23.38
2019-04-21T12:35:55.651Z,23.30
2019-04-21T12:38:36.480Z,23.20
2019-04-21T12:40:57.818Z,23.20
2019-04-21T12:43:26.511Z,23.17
2019-04-21T12:45:55.870Z,23.15
2019-04-21T12:48:26.207Z,23.10
2019-04-21T12:50:55.179Z,23.14
2019-04-21T12:53:23.762Z,23.16
2019-04-21T12:55:53.895Z,23.24
2019-04-21T12:58:25.578Z,23.33
2019-04-21T13:00:56.759Z,23.40
2019-04-21T13:03:27.413Z,23.29
2019-04-21T13:05:56.070Z,23.23
2019-04-21T13:08:25.041Z,23.49
2019-04-21T13:10:56.086Z,23.68
2019-04-21T13:13:26.193Z,23.55
2019-04-21T13:15:57.602Z,23.58
2019-04-21T13:18:27.048Z,23.60
2019-04-21T13:20:56.108Z,23.39
2019-04-21T13:23:27.084Z,23.45
2019-04-21T13:25:56.140Z,23.34
2019-04-21T13:28:24.912Z,23.31
2019-04-21T13:30:56.051Z,23.25
2019-04-21T13:33:25.333Z,23.38
2019-04-21T13:35:55.135Z,23.46
2019-04-21T13:38:33.261Z,23.39
2019-04-21T13:41:31.142Z,23.37
2019-04-21T13:43:49.144Z,23.26
2019-04-21T13:46:20.559Z,23.21
2019-04-21T13:48:50.754Z,23.27
2019-04-21T13:51:19.548Z,23.22
2019-04-21T13:53:49.457Z,23.23
2019-04-21T13:56:18.495Z,23.40
2019-04-21T13:58:48.395Z,23.62
2019-04-21T14:01:18.085Z,23.52
2019-04-21T14:03:49.490Z,23.39
2019-04-21T14:06:20.487Z,23.50
2019-04-21T14:08:50.592Z,23.66
2019-04-21T14:11:20.079Z,23.62
2019-04-21T14:13:50.285Z,23.50
2019-04-21T14:16:20.306Z,23.46
2019-04-21T14:18:49.629Z,23.31
2019-04-21T14:21:18.897Z,23.44
2019-04-21T14:23:50.818Z,23.29
2019-04-21T14:26:18.401Z,23.48
2019-04-21T14:28:47.546Z,23.49
2019-04-21T14:31:17.611Z,23.56
2019-04-21T14:33:46.173Z,23.57
2019-04-21T14:36:17.210Z,23.55
2019-04-21T14:38:47.676Z,23.65
2019-04-21T14:41:16.265Z,23.74
2019-04-21T14:43:47.973Z,23.55
2019-04-21T14:46:21.768Z,23.53
2019-04-21T14:49:29.084Z,23.65
2019-04-21T14:52:21.194Z,23.48
2019-04-21T14:55:12.278Z,23.35
2019-04-21T14:57:41.142Z,23.30
2019-04-21T15:00:11.209Z,23.18
2019-04-21T15:02:39.938Z,23.06
2019-04-21T15:05:11.475Z,22.85
2019-04-21T15:07:41.407Z,22.77
2019-04-21T15:10:18.012Z,22.68
2019-04-21T15:12:41.597Z,22.57
2019-04-21T15:15:10.289Z,22.72
2019-04-21T15:17:39.885Z,22.79
2019-04-21T15:20:13.510Z,22.82
2019-04-21T15:22:38.850Z,22.80
2019-04-21T15:25:08.115Z,22.65
2019-04-21T15:27:37.049Z,22.57
2019-04-21T15:30:06.954Z,22.63
2019-04-21T15:32:36.729Z,22.70
2019-04-21T15:35:06.825Z,22.75
2019-04-21T15:37:35.984Z,22.73
2019-04-21T15:40:14.976Z,22.71
2019-04-21T15:42:36.630Z,22.73
2019-04-21T15:45:06.354Z,22.77
2019-04-21T15:47:35.983Z,22.70
2019-04-21T15:50:10.168Z,22.67
2019-04-21T15:52:37.965Z,22.44
2019-04-21T15:55:22.947Z,22.50
2019-04-21T15:58:01.083Z,22.49
2019-04-21T16:00:46.833Z,22.51
2019-04-21T16:04:04.309Z,22.50
2019-04-21T16:07:11.943Z,22.45
2019-04-21T16:10:26.204Z,22.33
2019-04-21T16:13:11.792Z,22.20
2019-04-21T16:16:12.770Z,22.21
2019-04-21T16:19:16.355Z,22.10
2019-04-21T16:22:18.797Z,22.10
2019-04-21T16:25:23.172Z,22.03
2019-04-21T16:27:51.043Z,21.84
2019-04-21T16:30:20.086Z,21.85
2019-04-21T16:32:49.886Z,21.78
2019-04-21T16:35:22.115Z,21.73
2019-04-21T16:37:50.923Z,21.64
2019-04-21T16:40:21.364Z,21.58
2019-04-21T16:42:50.126Z,21.51
2019-04-21T16:45:18.982Z,21.44
2019-04-21T16:47:53.350Z,21.36
2019-04-21T16:50:21.545Z,21.30
2019-04-21T16:53:08.254Z,21.26
2019-04-21T16:55:53.319Z,21.22
2019-04-21T16:58:28.920Z,21.13
2019-04-21T17:01:05.128Z,21.14
2019-04-21T17:03:32.603Z,21.18
2019-04-21T17:06:04.644Z,21.03
2019-04-21T17:08:31.831Z,21.01
2019-04-21T17:11:10.764Z,20.98
2019-04-21T17:13:33.583Z,20.92
2019-04-21T17:16:29.879Z,20.96
2019-04-21T17:18:48.244Z,21.00
2019-04-21T17:21:05.055Z,21.14
2019-04-21T17:23:33.626Z,21.20
2019-04-21T17:26:03.390Z,21.20
2019-04-21T17:28:32.039Z,21.18
2019-04-21T17:31:02.361Z,21.30
2019-04-21T17:33:32.351Z,21.30
2019-04-21T17:36:03.001Z,20.87
2019-04-21T17:38:34.158Z,20.44
2019-04-21T17:41:13.869Z,20.13
2019-04-21T17:43:34.693Z,19.81
2019-04-21T17:46:04.856Z,19.59
2019-04-21T17:48:34.672Z,19.49
2019-04-21T17:51:17.320Z,19.43
2019-04-21T17:53:56.931Z,19.35
2019-04-21T17:56:55.217Z,19.19
2019-04-21T17:59:16.394Z,19.07
2019-04-21T18:01:47.409Z,18.98
2019-04-21T18:04:18.238Z,18.80
2019-04-21T18:07:04.849Z,18.70
2019-04-21T18:10:04.753Z,18.63
2019-04-21T18:12:29.211Z,18.52
2019-04-21T18:14:56.782Z,18.47
2019-04-21T18:17:20.450Z,18.37
2019-04-21T18:19:52.424Z,18.14
2019-04-21T18:22:38.536Z,18.06
2019-04-21T18:25:15.354Z,17.87
2019-04-21T18:27:40.592Z,17.69
2019-04-21T18:30:52.465Z,17.55
2019-04-21T18:33:27.440Z,17.63
2019-04-21T18:36:15.825Z,17.62
2019-04-21T18:39:10.365Z,17.42
2019-04-21T18:41:28.767Z,17.09
2019-04-21T18:44:44.387Z,16.76
2019-04-21T18:47:14.759Z,16.51
2019-04-21T18:49:29.349Z,16.37
2019-04-21T18:52:16.817Z,16.22
2019-04-21T18:54:49.165Z,16.09
2019-04-21T18:57:19.546Z,15.94
2019-04-21T18:59:44.008Z,15.84
2019-04-21T19:02:14.972Z,15.75
2019-04-21T19:04:43.111Z,15.56
2019-04-21T19:07:30.611Z,15.46
2019-04-21T19:14:59.342Z,15.11
2019-04-21T19:20:16.011Z,15.05
2019-04-21T19:22:35.983Z,14.88
2019-04-21T19:25:09.951Z,14.75
2019-04-21T19:27:40.242Z,14.71
2019-04-21T19:32:39.038Z,14.58
2019-04-21T19:34:59.882Z,14.51
2019-04-21T19:37:38.945Z,14.46
2019-04-21T19:40:12.087Z,14.35
2019-04-21T19:42:45.559Z,14.24
2019-04-21T19:45:17.653Z,14.17
2019-04-21T19:47:56.681Z,14.03
2019-04-21T19:50:26.493Z,13.98
2019-04-21T19:52:43.748Z,13.91
2019-04-21T19:55:06.606Z,13.86
2019-04-21T19:57:38.892Z,13.73
2019-04-21T20:00:09.593Z,13.57
2019-04-21T20:02:38.503Z,13.40
2019-04-21T20:05:13.000Z,13.38
2019-04-21T20:07:55.348Z,13.26
2019-04-21T20:10:34.964Z,13.22
2019-04-21T20:13:02.858Z,13.16
2019-04-21T20:15:35.855Z,13.16
2019-04-21T20:18:00.273Z,13.08
2019-04-21T20:20:17.279Z,13.00
2019-04-21T20:22:50.316Z,12.99
2019-04-21T20:25:20.895Z,12.81
2019-04-21T20:27:58.140Z,12.65
2019-04-21T20:30:40.859Z,12.51
2019-04-21T20:33:19.836Z,12.38
2019-04-21T20:35:46.831Z,12.24
2019-04-21T20:38:02.282Z,12.26
2019-04-21T20:40:33.373Z,12.17
2019-04-21T20:43:13.473Z,12.09
2019-04-21T20:45:49.455Z,12.14
2019-04-21T20:48:07.261Z,12.01
2019-04-21T20:50:36.451Z,12.04
2019-04-21T20:53:17.635Z,12.03
2019-04-21T20:55:48.605Z,12.03
2019-04-21T20:58:15.091Z,12.04
2019-04-21T21:01:04.120Z,12.04
2019-04-21T21:03:24.700Z,11.97
2019-04-21T21:05:49.939Z,11.92
2019-04-21T21:08:24.641Z,11.91
2019-04-21T21:10:51.222Z,11.86
2019-04-21T21:13:32.192Z,11.72
2019-04-21T21:16:06.197Z,11.62
2019-04-21T21:18:59.582Z,11.59
2019-04-21T21:21:03.404Z,11.48
2019-04-21T21:23:29.147Z,11.32
2019-04-21T21:26:07.081Z,11.17
2019-04-21T21:28:29.044Z,11.03
2019-04-21T21:31:06.003Z,10.96
2019-04-21T21:33:39.489Z,10.93
2019-04-21T21:36:06.999Z,10.83
2019-04-21T21:38:37.545Z,10.94
2019-04-21T21:41:01.293Z,10.89
2019-04-21T21:43:23.610Z,10.76
2019-04-21T21:45:59.058Z,10.61
2019-04-21T21:48:37.979Z,10.52
2019-04-21T21:51:04.398Z,10.56
2019-04-21T21:53:28.863Z,10.49
2019-04-21T21:55:58.517Z,10.40
2019-04-21T21:58:36.455Z,10.40
2019-04-21T22:01:02.968Z,10.42
2019-04-21T22:03:39.093Z,10.40
2019-04-21T22:06:09.934Z,10.34
2019-04-21T22:08:38.942Z,10.37
2019-04-21T22:11:08.895Z,10.31
2019-04-21T22:13:49.017Z,10.26
2019-04-21T22:16:14.068Z,10.20
2019-04-21T22:19:03.505Z,10.14
2019-04-21T22:21:26.609Z,10.08
2019-04-21T22:23:51.645Z,10.05
2019-04-21T22:26:13.300Z,10.05
2019-04-21T22:28:43.560Z,9.92
2019-04-21T22:31:17.066Z,9.83
2019-04-21T22:33:48.408Z,9.79
2019-04-21T22:36:26.734Z,9.64
2019-04-21T22:39:06.381Z,9.56
2019-04-21T22:41:28.157Z,9.45
2019-04-21T22:43:51.143Z,9.36
2019-04-21T22:46:16.329Z,9.29
2019-04-21T22:48:52.182Z,9.14
2019-04-21T22:51:23.763Z,9.04
2019-04-21T22:53:48.842Z,9.06
2019-04-21T22:56:23.614Z,8.98
2019-04-21T22:58:48.280Z,9.01
2019-04-21T23:01:24.194Z,8.98
2019-04-21T23:03:54.702Z,9.01
2019-04-21T23:06:25.065Z,9.05
2019-04-21T23:08:55.091Z,9.09
2019-04-21T23:11:34.942Z,9.02
2019-04-21T23:14:02.506Z,8.79
2019-04-21T23:16:34.945Z,8.59
2019-04-21T23:19:15.892Z,8.37
2019-04-21T23:21:49.731Z,8.28
2019-04-21T23:24:26.210Z,8.27
2019-04-21T23:26:48.736Z,8.22
2019-04-21T23:29:30.714Z,8.15
2019-04-21T23:31:50.275Z,8.19
2019-04-21T23:34:06.426Z,8.24
2019-04-21T23:36:37.579Z,8.14
2019-04-21T23:39:15.990Z,8.06
2019-04-21T23:41:42.341Z,8.01
2019-04-21T23:44:12.207Z,7.94
2019-04-21T23:46:40.497Z,7.88
2019-04-21T23:49:22.213Z,7.84
2019-04-21T23:51:47.703Z,7.83
2019-04-21T23:54:11.392Z,7.82
2019-04-21T23:56:44.005Z,7.75
2019-04-21T23:59:16.047Z,7.60
